createdAt,value
2019-01-17T00:01:34.653Z,29.25
2019-01-17T00:03:09.870Z,28.37
2019-01-17T00:04:34.875Z,28.30
2019-01-17T00:06:06.255Z,28.45
2019-01-17T00:07:30.443Z,29.63
2019-01-17T00:08:55.998Z,30.30
2019-01-17T00:10:27.432Z,25.00
2019-01-17T00:12:05.788Z,15.78
2019-01-17T00:13:30.344Z,13.13
2019-01-17T00:14:47.341Z,10.70
2019-01-17T00:16:12.843Z,8.03
2019-01-17T00:17:38.459Z,7.40
2019-01-17T00:19:02.994Z,6.10
2019-01-17T00:20:30.336Z,4.73
2019-01-17T00:21:55.977Z,5.25
2019-01-17T00:23:21.784Z,5.33
2019-01-17T00:24:38.448Z,5.55
2019-01-17T00:26:10.448Z,6.08
2019-01-17T00:27:34.865Z,4.80
2019-01-17T00:28:56.068Z,4.65
2019-01-17T00:30:22.272Z,4.35
2019-01-17T00:31:57.252Z,5.10
2019-01-17T00:33:23.575Z,4.87
2019-01-17T00:34:50.607Z,4.35
2019-01-17T00:36:19.183Z,5.45
2019-01-17T00:37:44.704Z,4.47
2019-01-17T00:39:09.595Z,3.97
2019-01-17T00:40:27.018Z,3.60
2019-01-17T00:41:59.066Z,3.58
2019-01-17T00:43:23.787Z,3.30
2019-01-17T00:44:49.589Z,3.37
2019-01-17T00:46:21.256Z,2.75
2019-01-17T00:47:49.539Z,3.33
2019-01-17T00:49:33.460Z,3.33
2019-01-17T00:50:59.788Z,3.08
2019-01-17T00:52:18.589Z,3.08
2019-01-17T00:53:47.189Z,2.93
2019-01-17T00:55:27.745Z,2.40
2019-01-17T00:56:53.664Z,2.97
2019-01-17T00:58:37.625Z,2.80
2019-01-17T01:00:03.140Z,2.70
2019-01-17T01:01:36.258Z,2.60
2019-01-17T01:03:00.645Z,3.10
2019-01-17T01:04:28.720Z,2.93
2019-01-17T01:05:57.326Z,3.12
2019-01-17T01:07:21.766Z,3.37
2019-01-17T01:09:05.555Z,2.80
2019-01-17T01:10:46.565Z,2.85
2019-01-17T01:12:15.201Z,2.05
2019-01-17T01:13:39.443Z,2.12
2019-01-17T01:15:10.591Z,2.50
2019-01-17T01:16:55.007Z,2.37
2019-01-17T01:18:26.293Z,2.70
2019-01-17T01:19:44.805Z,2.70
2019-01-17T01:21:07.736Z,3.30
2019-01-17T01:22:32.194Z,2.55
2019-01-17T01:23:57.959Z,2.90
2019-01-17T01:25:17.781Z,3.08
2019-01-17T01:26:52.386Z,2.90
2019-01-17T01:28:33.375Z,3.17
2019-01-17T01:30:05.062Z,2.77
2019-01-17T01:31:30.566Z,3.92
2019-01-17T01:33:08.274Z,4.45
2019-01-17T01:34:26.824Z,3.92
2019-01-17T01:35:52.372Z,3.25
2019-01-17T01:37:17.088Z,3.70
2019-01-17T01:38:42.628Z,3.25
2019-01-17T01:40:14.810Z,3.45
2019-01-17T01:41:31.964Z,3.27
2019-01-17T01:42:57.738Z,3.80
2019-01-17T01:44:21.916Z,3.33
2019-01-17T01:45:46.496Z,3.67
2019-01-17T01:47:08.151Z,3.83
2019-01-17T01:48:33.683Z,3.40
2019-01-17T01:50:02.355Z,3.87
2019-01-17T01:51:30.691Z,3.05
2019-01-17T01:53:02.225Z,3.10
2019-01-17T01:54:08.942Z,3.15
2019-01-17T01:55:15.590Z,2.80
2019-01-17T01:56:22.847Z,3.17
2019-01-17T01:57:29.887Z,3.42
2019-01-17T01:58:36.887Z,3.27
2019-01-17T01:59:43.564Z,2.90
2019-01-17T02:00:50.253Z,3.45
2019-01-17T02:01:57.067Z,3.10
2019-01-17T02:03:04.061Z,3.83
2019-01-17T02:04:10.695Z,3.25
2019-01-17T02:05:17.417Z,3.27
2019-01-17T02:06:24.066Z,3.60
2019-01-17T02:07:31.126Z,3.55
2019-01-17T02:08:37.758Z,3.08
2019-01-17T02:09:44.755Z,3.07
2019-01-17T02:10:51.881Z,3.60
2019-01-17T02:11:58.581Z,2.72
2019-01-17T02:13:05.400Z,2.95
2019-01-17T02:14:12.426Z,3.15
2019-01-17T02:15:19.237Z,3.15
2019-01-17T02:16:25.856Z,3.50
2019-01-17T02:17:33.178Z,3.05
2019-01-17T02:18:39.866Z,2.85
2019-01-17T02:19:46.611Z,3.95
2019-01-17T02:20:53.261Z,3.62
2019-01-17T02:21:59.922Z,2.83
2019-01-17T02:23:06.807Z,3.20
2019-01-17T02:24:13.526Z,2.80
2019-01-17T02:25:20.591Z,2.80
2019-01-17T02:26:27.592Z,3.20
2019-01-17T02:27:34.605Z,2.90
2019-01-17T02:28:41.240Z,2.70
2019-01-17T02:29:47.943Z,2.77
2019-01-17T02:30:54.633Z,2.45
2019-01-17T02:32:01.635Z,2.58
2019-01-17T02:33:10.113Z,2.50
2019-01-17T02:34:17.090Z,2.30
2019-01-17T02:35:23.925Z,2.43
2019-01-17T02:36:30.936Z,3.13
2019-01-17T02:37:37.897Z,2.90
2019-01-17T02:38:45.240Z,2.27
2019-01-17T02:39:52.297Z,2.10
2019-01-17T02:40:59.354Z,2.25
2019-01-17T02:42:07.378Z,2.30
2019-01-17T02:43:14.047Z,2.40
2019-01-17T02:44:21.133Z,2.50
2019-01-17T02:45:28.222Z,2.33
2019-01-17T02:46:35.110Z,2.70
2019-01-17T02:47:42.231Z,1.85
2019-01-17T02:48:49.349Z,2.70
2019-01-17T02:49:55.984Z,3.20
2019-01-17T02:51:02.763Z,3.13
2019-01-17T02:52:09.720Z,2.27
2019-01-17T02:53:16.429Z,2.52
2019-01-17T02:54:23.088Z,3.10
2019-01-17T02:55:29.761Z,2.23
2019-01-17T02:56:36.412Z,2.85
2019-01-17T02:57:43.161Z,2.70
2019-01-17T02:58:50.253Z,2.40
2019-01-17T02:59:57.219Z,2.25
2019-01-17T03:01:04.304Z,2.40
2019-01-17T03:02:10.683Z,2.77
2019-01-17T03:03:17.426Z,2.30
2019-01-17T03:04:24.138Z,1.70
2019-01-17T03:05:30.793Z,2.70
2019-01-17T03:06:37.474Z,2.67
2019-01-17T03:07:44.125Z,2.53
2019-01-17T03:08:50.898Z,2.60
2019-01-17T03:09:57.623Z,2.75
2019-01-17T03:11:04.624Z,2.72
2019-01-17T03:12:11.288Z,2.47
2019-01-17T03:13:18.184Z,2.35
2019-01-17T03:14:24.844Z,2.42
2019-01-17T03:15:31.888Z,2.52
2019-01-17T03:16:38.598Z,2.50
2019-01-17T03:17:45.264Z,2.45
2019-01-17T03:18:51.985Z,2.27
2019-01-17T03:19:59.335Z,3.13
2019-01-17T03:21:05.956Z,3.15
2019-01-17T03:22:12.661Z,2.70
2019-01-17T03:23:19.385Z,2.67
2019-01-17T03:24:26.385Z,3.00
2019-01-17T03:25:33.071Z,2.85
2019-01-17T03:26:40.080Z,2.83
2019-01-17T03:27:46.811Z,3.45
2019-01-17T03:28:53.454Z,3.10
2019-01-17T03:30:00.721Z,3.53
2019-01-17T03:31:07.585Z,3.20
2019-01-17T03:32:15.180Z,3.12
2019-01-17T03:33:21.818Z,2.62
2019-01-17T03:34:28.456Z,2.57
2019-01-17T03:35:35.469Z,3.30
2019-01-17T03:36:42.505Z,3.45
2019-01-17T03:37:49.543Z,3.70
2019-01-17T03:38:56.557Z,3.37
2019-01-17T03:40:03.207Z,2.70
2019-01-17T03:41:09.858Z,3.60
2019-01-17T03:42:17.315Z,3.02
2019-01-17T03:43:24.359Z,3.58
2019-01-17T03:44:31.006Z,3.40
2019-01-17T03:45:37.726Z,2.83
2019-01-17T03:46:45.001Z,3.62
2019-01-17T03:47:51.719Z,3.07
2019-01-17T03:48:58.371Z,3.65
2019-01-17T03:50:06.050Z,3.58
2019-01-17T03:51:12.796Z,4.22
2019-01-17T03:52:19.585Z,3.20
2019-01-17T03:53:26.243Z,4.15
2019-01-17T03:54:33.314Z,4.17
2019-01-17T03:55:40.374Z,4.65
2019-01-17T03:56:47.085Z,5.33
2019-01-17T03:57:53.752Z,4.50
2019-01-17T03:59:00.682Z,4.80
2019-01-17T04:00:11.664Z,5.28
2019-01-17T04:01:18.734Z,4.33
2019-01-17T04:02:25.784Z,4.53
2019-01-17T04:03:32.996Z,5.85
2019-01-17T04:04:39.721Z,5.47
2019-01-17T04:05:46.464Z,5.08
2019-01-17T04:06:53.403Z,5.10
2019-01-17T04:08:00.077Z,6.03
2019-01-17T04:09:08.562Z,5.50
2019-01-17T04:10:16.847Z,6.25
2019-01-17T04:11:23.892Z,5.62
2019-01-17T04:12:30.542Z,5.47
2019-01-17T04:13:37.203Z,5.20
2019-01-17T04:14:43.943Z,5.90
2019-01-17T04:15:50.600Z,5.95
2019-01-17T04:16:57.287Z,6.17
2019-01-17T04:18:04.202Z,6.25
2019-01-17T04:19:10.846Z,6.67
2019-01-17T04:20:19.145Z,5.70
2019-01-17T04:21:25.832Z,5.70
2019-01-17T04:22:32.480Z,5.85
2019-01-17T04:23:39.370Z,7.62
2019-01-17T04:24:46.086Z,7.05
2019-01-17T04:25:53.118Z,8.03
2019-01-17T04:26:59.795Z,6.12
2019-01-17T04:28:06.941Z,6.93
2019-01-17T04:29:13.676Z,7.50
2019-01-17T04:30:21.026Z,6.67
2019-01-17T04:31:27.722Z,7.28
2019-01-17T04:32:34.362Z,7.92
2019-01-17T04:33:41.092Z,7.55
2019-01-17T04:34:47.964Z,6.60
2019-01-17T04:35:54.941Z,7.12
2019-01-17T04:37:01.951Z,9.15
2019-01-17T04:38:09.363Z,7.90
2019-01-17T04:39:16.787Z,8.20
2019-01-17T04:40:23.877Z,8.43
2019-01-17T04:41:30.905Z,8.83
2019-01-17T04:42:37.584Z,8.28
2019-01-17T04:43:44.330Z,8.40
2019-01-17T04:44:51.184Z,9.30
2019-01-17T04:45:58.170Z,8.80
2019-01-17T04:47:04.816Z,9.73
2019-01-17T04:48:11.513Z,8.40
2019-01-17T04:49:18.515Z,9.97
2019-01-17T04:50:25.166Z,8.33
2019-01-17T04:51:32.168Z,9.88
2019-01-17T04:52:38.886Z,9.27
2019-01-17T04:53:45.629Z,8.88
2019-01-17T04:54:52.946Z,9.70
2019-01-17T04:55:59.696Z,9.58
2019-01-17T04:57:06.344Z,10.00
2019-01-17T04:58:13.037Z,9.40
2019-01-17T04:59:19.717Z,10.03
2019-01-17T05:00:26.753Z,10.50
2019-01-17T05:01:33.816Z,10.05
2019-01-17T05:02:40.831Z,10.30
2019-01-17T05:03:47.718Z,10.80
2019-01-17T05:04:54.422Z,11.18
2019-01-17T05:06:01.117Z,10.18
2019-01-17T05:07:08.200Z,10.23
2019-01-17T05:08:15.224Z,10.28
2019-01-17T05:09:21.902Z,11.05
2019-01-17T05:10:28.896Z,11.20
2019-01-17T05:11:35.614Z,10.53
2019-01-17T05:12:43.149Z,10.70
2019-01-17T05:13:49.934Z,10.20
2019-01-17T05:14:56.882Z,11.87
2019-01-17T05:16:03.556Z,10.48
2019-01-17T05:17:10.298Z,11.80
2019-01-17T05:18:17.265Z,9.80
2019-01-17T05:19:24.332Z,11.22
2019-01-17T05:20:31.262Z,12.93
2019-01-17T05:21:37.956Z,10.65
2019-01-17T05:22:44.851Z,11.83
2019-01-17T05:23:51.767Z,11.68
2019-01-17T05:24:58.721Z,11.60
2019-01-17T05:26:05.739Z,11.57
2019-01-17T05:27:12.527Z,11.80
2019-01-17T05:28:19.193Z,13.05
2019-01-17T05:29:25.930Z,11.97
2019-01-17T05:30:33.304Z,11.57
2019-01-17T05:31:39.985Z,13.30
2019-01-17T05:32:47.064Z,13.30
2019-01-17T05:33:53.997Z,12.35
2019-01-17T05:35:01.029Z,13.30
2019-01-17T05:36:07.761Z,11.53
2019-01-17T05:37:14.448Z,12.43
2019-01-17T05:38:21.832Z,13.75
2019-01-17T05:39:28.620Z,12.90
2019-01-17T05:40:35.317Z,12.80
2019-01-17T05:41:42.086Z,13.53
2019-01-17T05:42:48.768Z,14.25
2019-01-17T05:43:55.504Z,13.93
2019-01-17T05:45:02.189Z,14.00
2019-01-17T05:46:09.255Z,13.97
2019-01-17T05:47:16.092Z,13.20
2019-01-17T05:48:23.086Z,14.68
2019-01-17T05:49:29.769Z,14.68
2019-01-17T05:50:36.466Z,14.98
2019-01-17T05:51:43.485Z,14.10
2019-01-17T05:52:51.208Z,16.45
2019-01-17T05:53:57.859Z,14.58
2019-01-17T05:55:04.887Z,15.23
2019-01-17T05:56:11.553Z,15.27
2019-01-17T05:57:18.568Z,14.93
2019-01-17T05:58:25.622Z,14.80
2019-01-17T05:59:32.307Z,15.60
2019-01-17T06:00:39.044Z,14.10
2019-01-17T06:01:45.727Z,16.30
2019-01-17T06:02:52.977Z,15.90
2019-01-17T06:03:59.633Z,16.17
2019-01-17T06:05:07.426Z,15.58
2019-01-17T06:06:15.307Z,15.60
2019-01-17T06:07:22.400Z,15.93
2019-01-17T06:08:29.077Z,15.00
2019-01-17T06:09:36.434Z,15.87
2019-01-17T06:10:43.466Z,16.12
2019-01-17T06:11:50.516Z,17.35
2019-01-17T06:12:57.484Z,16.60
2019-01-17T06:14:04.523Z,16.20
2019-01-17T06:15:12.679Z,16.82
2019-01-17T06:16:19.358Z,16.90
2019-01-17T06:17:26.417Z,15.33
2019-01-17T06:18:33.120Z,16.75
2019-01-17T06:19:39.795Z,16.57
2019-01-17T06:20:46.475Z,16.50
2019-01-17T06:21:53.809Z,16.80
2019-01-17T06:23:00.505Z,15.70
2019-01-17T06:24:07.198Z,15.65
2019-01-17T06:25:14.323Z,15.53
2019-01-17T06:26:21.028Z,16.40
2019-01-17T06:27:28.267Z,17.00
2019-01-17T06:28:35.345Z,15.15
2019-01-17T06:29:42.035Z,16.77
2019-01-17T06:30:48.709Z,15.40
2019-01-17T06:31:55.744Z,15.90
2019-01-17T06:33:02.606Z,18.02
2019-01-17T06:34:09.589Z,15.70
2019-01-17T06:35:16.867Z,16.87
2019-01-17T06:36:23.618Z,15.05
2019-01-17T06:37:30.266Z,15.50
2019-01-17T06:38:36.988Z,17.70
2019-01-17T06:39:43.625Z,16.50
2019-01-17T06:40:50.301Z,15.90
2019-01-17T06:41:57.328Z,15.50
2019-01-17T06:43:03.963Z,15.08
2019-01-17T06:44:11.354Z,16.03
2019-01-17T06:45:18.375Z,15.50
2019-01-17T06:46:25.517Z,15.33
2019-01-17T06:47:32.679Z,15.78
2019-01-17T06:48:39.341Z,16.27
2019-01-17T06:49:46.025Z,16.30
2019-01-17T06:50:52.995Z,16.40
2019-01-17T06:51:59.649Z,16.32
2019-01-17T06:53:06.630Z,16.67
2019-01-17T06:54:15.077Z,16.62
2019-01-17T06:55:21.798Z,16.60
2019-01-17T06:56:28.530Z,15.95
2019-01-17T06:57:35.217Z,14.47
2019-01-17T06:58:41.849Z,17.27
2019-01-17T06:59:48.611Z,17.67
2019-01-17T07:00:55.743Z,17.55
2019-01-17T07:02:02.400Z,16.75
2019-01-17T07:03:09.043Z,16.90
2019-01-17T07:04:15.714Z,18.10
2019-01-17T07:05:22.825Z,15.32
2019-01-17T07:06:29.660Z,16.48
2019-01-17T07:07:36.332Z,16.82
2019-01-17T07:08:42.974Z,15.80
2019-01-17T07:09:49.694Z,15.73
2019-01-17T07:10:56.720Z,15.83
2019-01-17T07:12:03.432Z,17.10
2019-01-17T07:13:10.108Z,18.02
2019-01-17T07:14:16.864Z,17.80
2019-01-17T07:15:23.826Z,17.30
2019-01-17T07:16:30.480Z,17.07
2019-01-17T07:17:37.296Z,15.60
2019-01-17T07:18:44.350Z,15.83
2019-01-17T07:19:51.043Z,17.40
2019-01-17T07:20:57.999Z,15.58
2019-01-17T07:22:05.131Z,15.35
2019-01-17T07:23:13.087Z,15.08
2019-01-17T07:24:20.117Z,16.95
2019-01-17T07:25:27.242Z,16.45
2019-01-17T07:26:34.311Z,16.07
2019-01-17T07:27:40.953Z,16.97
2019-01-17T07:28:47.781Z,17.55
2019-01-17T07:29:54.488Z,16.83
2019-01-17T07:31:01.175Z,17.87
2019-01-17T07:32:08.437Z,18.98
2019-01-17T07:33:15.122Z,17.57
2019-01-17T07:34:21.863Z,17.65
2019-01-17T07:35:28.531Z,17.50
2019-01-17T07:36:35.293Z,18.32
2019-01-17T07:37:42.013Z,18.75
2019-01-17T07:38:48.692Z,18.53
2019-01-17T07:39:56.173Z,18.00
2019-01-17T07:41:02.824Z,17.52
2019-01-17T07:42:09.781Z,17.37
2019-01-17T07:43:16.866Z,18.87
2019-01-17T07:44:23.516Z,17.07
2019-01-17T07:45:31.794Z,17.40
2019-01-17T07:46:38.511Z,18.77
2019-01-17T07:47:45.197Z,18.00
2019-01-17T07:48:51.904Z,16.50
2019-01-17T07:49:58.774Z,20.27
2019-01-17T07:51:05.968Z,18.35
2019-01-17T07:52:13.077Z,20.97
2019-01-17T07:53:20.050Z,18.93
2019-01-17T07:54:27.033Z,20.08
2019-01-17T07:55:34.109Z,19.12
2019-01-17T07:56:40.849Z,18.60
2019-01-17T07:57:47.670Z,17.43
2019-01-17T07:58:55.018Z,19.20
2019-01-17T08:00:01.986Z,17.40
2019-01-17T08:01:14.871Z,18.55
2019-01-17T08:02:17.392Z,17.32
2019-01-17T08:03:24.435Z,18.67
2019-01-17T08:04:31.308Z,18.32
2019-01-17T08:05:38.367Z,20.05
2019-01-17T08:06:45.705Z,17.70
2019-01-17T08:07:52.403Z,18.95
2019-01-17T08:08:59.470Z,18.52
2019-01-17T08:10:09.998Z,18.53
2019-01-17T08:11:17.101Z,19.62
2019-01-17T08:12:23.775Z,18.90
2019-01-17T08:13:30.788Z,17.42
2019-01-17T08:14:38.503Z,18.05
2019-01-17T08:15:45.298Z,18.00
2019-01-17T08:16:51.973Z,18.37
2019-01-17T08:17:58.995Z,18.10
2019-01-17T08:19:06.247Z,19.83
2019-01-17T08:20:17.758Z,19.20
2019-01-17T08:21:26.036Z,19.80
2019-01-17T08:22:32.887Z,19.02
2019-01-17T08:23:39.576Z,20.52
2019-01-17T08:24:46.299Z,20.00
2019-01-17T08:25:54.342Z,19.37
2019-01-17T08:27:01.149Z,19.80
2019-01-17T08:28:08.177Z,20.97
2019-01-17T08:29:15.602Z,19.50
2019-01-17T08:30:26.105Z,20.10
2019-01-17T08:31:33.143Z,19.05
2019-01-17T08:32:39.841Z,20.60
2019-01-17T08:33:46.951Z,19.80
2019-01-17T08:34:54.055Z,20.25
2019-01-17T08:36:01.143Z,21.33
2019-01-17T08:37:08.182Z,20.33
2019-01-17T08:38:14.877Z,22.20
2019-01-17T08:39:21.710Z,21.07
2019-01-17T08:40:33.765Z,20.70
2019-01-17T08:41:40.997Z,20.57
2019-01-17T08:42:48.095Z,20.75
2019-01-17T08:43:55.183Z,20.60
2019-01-17T08:45:02.902Z,19.65
2019-01-17T08:46:10.024Z,18.42
2019-01-17T08:47:17.119Z,17.92
2019-01-17T08:48:23.824Z,14.40
2019-01-17T08:49:30.570Z,15.87
2019-01-17T08:50:37.593Z,15.05
2019-01-17T08:51:44.630Z,14.65
2019-01-17T08:52:52.092Z,14.68
2019-01-17T08:53:58.825Z,18.70
2019-01-17T08:55:06.426Z,17.30
2019-01-17T08:56:13.247Z,17.70
2019-01-17T08:57:20.011Z,18.20
2019-01-17T08:58:26.965Z,18.00
2019-01-17T08:59:33.940Z,17.65
2019-01-17T09:00:40.609Z,17.47
2019-01-17T09:01:47.305Z,20.63
2019-01-17T09:02:54.072Z,20.60
2019-01-17T09:04:00.803Z,20.10
2019-01-17T09:05:09.356Z,16.17
2019-01-17T09:06:16.028Z,14.33
2019-01-17T09:07:23.216Z,15.70
2019-01-17T09:08:30.266Z,16.57
2019-01-17T09:09:36.946Z,15.20
2019-01-17T09:10:43.611Z,12.10
2019-01-17T09:11:50.331Z,11.63
2019-01-17T09:12:57.936Z,11.57
2019-01-17T09:14:04.874Z,10.60
2019-01-17T09:15:13.906Z,11.60
2019-01-17T09:16:20.570Z,10.90
2019-01-17T09:17:27.288Z,9.75
2019-01-17T09:18:34.032Z,9.20
2019-01-17T09:19:40.711Z,9.55
2019-01-17T09:20:47.385Z,9.27
2019-01-17T09:21:54.060Z,8.37
2019-01-17T09:23:00.719Z,8.60
2019-01-17T09:24:07.382Z,7.77
2019-01-17T09:25:15.755Z,6.97
2019-01-17T09:26:22.464Z,8.20
2019-01-17T09:27:29.165Z,8.05
2019-01-17T09:28:36.145Z,6.75
2019-01-17T09:29:42.843Z,7.40
2019-01-17T09:30:49.927Z,7.42
2019-01-17T09:31:57.194Z,7.08
2019-01-17T09:33:03.848Z,8.53
2019-01-17T09:34:10.575Z,6.62
2019-01-17T09:35:18.648Z,6.60
2019-01-17T09:36:25.677Z,6.95
2019-01-17T09:37:32.447Z,6.80
2019-01-17T09:38:39.632Z,7.05
2019-01-17T09:39:46.774Z,8.20
2019-01-17T09:40:53.463Z,7.05
2019-01-17T09:42:00.514Z,6.08
2019-01-17T09:43:07.835Z,7.03
2019-01-17T09:44:14.542Z,7.20
2019-01-17T09:45:21.250Z,7.22
2019-01-17T09:46:27.974Z,8.80
2019-01-17T09:47:34.668Z,7.03
2019-01-17T09:48:41.789Z,8.70
2019-01-17T09:49:48.507Z,7.45
2019-01-17T09:50:55.200Z,8.68
2019-01-17T09:52:01.897Z,8.68
2019-01-17T09:53:09.981Z,8.08
2019-01-17T09:54:16.638Z,9.20
2019-01-17T09:55:23.419Z,9.53
2019-01-17T09:56:30.117Z,10.58
2019-01-17T09:57:36.804Z,9.70
2019-01-17T09:58:43.909Z,10.13
2019-01-17T09:59:50.590Z,8.78
2019-01-17T10:00:57.381Z,10.40
2019-01-17T10:02:04.406Z,10.30
2019-01-17T10:03:11.233Z,9.00
2019-01-17T10:04:18.279Z,10.23
2019-01-17T10:05:25.302Z,8.40
2019-01-17T10:06:32.102Z,7.90
2019-01-17T10:07:39.828Z,9.53
2019-01-17T10:08:46.712Z,8.63
2019-01-17T10:09:53.427Z,8.07
2019-01-17T10:11:00.161Z,8.15
2019-01-17T10:12:07.392Z,7.33
2019-01-17T10:13:14.343Z,6.85
2019-01-17T10:14:21.415Z,5.87
2019-01-17T10:15:46.116Z,6.00
2019-01-17T10:17:26.859Z,6.83
2019-01-17T10:19:40.621Z,5.25
2019-01-17T10:21:54.575Z,5.28
2019-01-17T10:23:57.998Z,3.90
2019-01-17T10:26:24.665Z,3.77
2019-01-17T10:28:35.749Z,3.60
2019-01-17T10:30:29.304Z,3.30
2019-01-17T10:32:30.439Z,3.02
2019-01-17T10:34:24.824Z,2.58
2019-01-17T10:36:26.718Z,2.62
2019-01-17T10:38:28.003Z,3.30
2019-01-17T10:40:45.692Z,2.77
2019-01-17T10:42:21.270Z,2.52
2019-01-17T10:44:36.533Z,2.70
2019-01-17T10:46:38.607Z,2.35
2019-01-17T10:48:55.545Z,2.60
2019-01-17T10:50:25.023Z,2.33
2019-01-17T10:52:18.279Z,2.42
2019-01-17T10:54:29.284Z,2.80
2019-01-17T10:56:44.683Z,2.60
2019-01-17T10:58:31.463Z,2.67
2019-01-17T11:00:25.672Z,2.47
2019-01-17T11:02:02.468Z,2.83
2019-01-17T11:04:11.322Z,2.25
2019-01-17T11:06:18.167Z,2.50
2019-01-17T11:07:45.778Z,2.85
2019-01-17T11:10:01.002Z,2.63
2019-01-17T11:12:03.869Z,2.72
2019-01-17T11:14:07.201Z,2.92
2019-01-17T11:16:30.055Z,2.70
2019-01-17T11:18:22.092Z,2.40
2019-01-17T11:20:37.965Z,3.22
2019-01-17T11:22:38.855Z,3.22
2019-01-17T11:24:53.096Z,3.37
2019-01-17T11:27:10.910Z,3.42
2019-01-17T11:28:56.537Z,3.55
2019-01-17T11:30:49.906Z,3.45
2019-01-17T11:32:46.798Z,4.45
2019-01-17T11:34:44.759Z,3.77
2019-01-17T11:37:01.559Z,3.42
2019-01-17T11:39:13.207Z,4.40
2019-01-17T11:41:40.805Z,3.72
2019-01-17T11:43:24.174Z,4.08
2019-01-17T11:44:43.688Z,4.58
2019-01-17T11:46:39.662Z,4.50
2019-01-17T11:49:06.019Z,4.60
2019-01-17T11:50:58.433Z,4.80
2019-01-17T11:52:55.677Z,5.00
2019-01-17T11:55:04.065Z,5.42
2019-01-17T11:57:28.633Z,3.98
2019-01-17T11:59:00.190Z,4.90
2019-01-17T12:01:07.044Z,4.10
2019-01-17T12:02:57.614Z,3.87
2019-01-17T12:05:48.920Z,2.40
2019-01-17T12:06:55.923Z,2.45
2019-01-17T12:08:02.649Z,3.10
2019-01-17T12:09:09.802Z,2.17
2019-01-17T12:10:16.848Z,2.42
2019-01-17T12:11:23.545Z,2.65
2019-01-17T12:12:30.319Z,2.53
2019-01-17T12:13:37.071Z,1.98
2019-01-17T12:14:43.985Z,1.85
2019-01-17T12:15:51.227Z,1.95
2019-01-17T12:16:58.869Z,2.40
2019-01-17T12:18:05.965Z,1.70
2019-01-17T12:19:13.019Z,1.95
2019-01-17T12:20:19.854Z,1.87
2019-01-17T12:21:27.024Z,1.57
2019-01-17T12:22:34.142Z,1.22
2019-01-17T12:23:41.172Z,0.90
2019-01-17T12:24:48.277Z,0.60
2019-01-17T12:25:55.422Z,0.83
2019-01-17T12:27:02.505Z,0.50
2019-01-17T12:28:09.621Z,0.57
2019-01-17T12:29:16.267Z,0.43
2019-01-17T12:30:23.076Z,0.70
2019-01-17T12:31:29.795Z,0.60
2019-01-17T12:32:36.468Z,0.80
2019-01-17T12:33:43.136Z,0.70
2019-01-17T12:34:50.418Z,0.80
2019-01-17T12:35:57.151Z,0.60
2019-01-17T12:37:03.878Z,0.80
2019-01-17T12:38:10.539Z,0.70
2019-01-17T12:39:18.195Z,0.90
2019-01-17T12:40:25.000Z,0.90
2019-01-17T12:41:31.678Z,0.60
2019-01-17T12:42:38.880Z,2.10
2019-01-17T12:43:45.685Z,1.17
2019-01-17T12:44:52.542Z,0.70
2019-01-17T12:45:59.401Z,1.10
2019-01-17T12:47:06.531Z,1.50
2019-01-17T12:48:13.698Z,0.80
2019-01-17T12:49:20.564Z,1.05
2019-01-17T12:50:27.352Z,0.80
2019-01-17T12:51:34.462Z,0.80
2019-01-17T12:52:41.259Z,0.60
2019-01-17T12:53:48.286Z,0.60
2019-01-17T12:54:54.973Z,0.80
2019-01-17T12:56:02.326Z,1.00
2019-01-17T12:57:09.318Z,0.70
2019-01-17T12:58:15.998Z,1.22
2019-01-17T12:59:22.674Z,0.88
2019-01-17T13:00:29.883Z,1.20
2019-01-17T13:01:36.562Z,1.05
2019-01-17T13:02:43.312Z,1.62
2019-01-17T13:03:50.052Z,0.90
2019-01-17T13:04:56.719Z,0.88
2019-01-17T13:06:03.821Z,0.80
2019-01-17T13:07:10.857Z,1.10
2019-01-17T13:08:18.048Z,0.80
2019-01-17T13:09:24.868Z,0.98
2019-01-17T13:10:31.565Z,1.00
2019-01-17T13:11:38.451Z,1.00
2019-01-17T13:12:45.249Z,1.20
2019-01-17T13:13:51.943Z,0.88
2019-01-17T13:14:58.948Z,1.00
2019-01-17T13:16:08.087Z,1.00
2019-01-17T13:17:17.548Z,1.07
2019-01-17T13:18:24.614Z,0.93
2019-01-17T13:19:31.485Z,0.90
2019-01-17T13:20:39.425Z,0.60
2019-01-17T13:21:46.737Z,1.50
2019-01-17T13:22:53.517Z,0.80
2019-01-17T13:24:01.887Z,1.35
2019-01-17T13:25:12.385Z,1.00
2019-01-17T13:26:19.542Z,0.70
2019-01-17T13:27:27.049Z,0.70
2019-01-17T13:28:34.975Z,1.50
2019-01-17T13:29:42.167Z,1.15
2019-01-17T13:30:49.338Z,1.20
2019-01-17T13:31:56.394Z,1.10
2019-01-17T13:33:03.386Z,2.62
2019-01-17T13:34:11.400Z,1.15
2019-01-17T13:35:18.789Z,2.08
2019-01-17T13:36:26.054Z,0.75
2019-01-17T13:37:33.450Z,1.00
2019-01-17T13:38:41.461Z,1.37
2019-01-17T13:39:49.676Z,1.00
2019-01-17T13:40:56.708Z,0.90
2019-01-17T13:42:13.403Z,1.25
2019-01-17T13:43:21.062Z,1.33
2019-01-17T13:44:27.921Z,1.25
2019-01-17T13:45:34.656Z,1.20
2019-01-17T13:46:46.221Z,1.30
2019-01-17T13:47:56.835Z,1.20
2019-01-17T13:49:04.175Z,1.30
2019-01-17T13:50:12.678Z,0.80
2019-01-17T13:51:20.606Z,1.73
2019-01-17T13:52:27.881Z,0.90
2019-01-17T13:53:36.777Z,1.17
2019-01-17T13:54:44.591Z,1.30
2019-01-17T13:55:52.218Z,1.82
2019-01-17T13:56:58.895Z,1.00
2019-01-17T13:58:05.950Z,1.15
2019-01-17T13:59:12.644Z,1.60
2019-01-17T14:00:23.087Z,1.90
2019-01-17T14:01:30.484Z,0.82
2019-01-17T14:02:38.502Z,0.70
2019-01-17T14:03:47.151Z,1.17
2019-01-17T14:04:55.773Z,0.90
2019-01-17T14:06:04.200Z,1.33
2019-01-17T14:07:14.088Z,1.98
2019-01-17T14:08:21.331Z,1.17
2019-01-17T14:09:28.328Z,0.93
2019-01-17T14:10:40.207Z,1.55
2019-01-17T14:11:53.614Z,1.12
2019-01-17T14:13:01.729Z,1.10
2019-01-17T14:14:11.141Z,0.97
2019-01-17T14:15:24.197Z,1.15
2019-01-17T14:16:31.408Z,1.17
2019-01-17T14:17:39.499Z,1.05
2019-01-17T14:18:47.555Z,0.90
2019-01-17T14:19:55.562Z,1.20
2019-01-17T14:21:04.373Z,0.85
2019-01-17T14:22:12.746Z,1.20
2019-01-17T14:23:20.632Z,1.20
2019-01-17T14:24:27.787Z,1.40
2019-01-17T14:25:35.809Z,1.45
2019-01-17T14:26:43.677Z,1.70
2019-01-17T14:27:51.478Z,1.37
2019-01-17T14:28:58.483Z,1.05
2019-01-17T14:30:27.305Z,1.10
2019-01-17T14:31:35.982Z,1.40
2019-01-17T14:32:45.986Z,1.30
2019-01-17T14:33:53.848Z,1.70
2019-01-17T14:35:00.719Z,1.57
2019-01-17T14:36:08.132Z,1.70
2019-01-17T14:37:15.665Z,1.00
2019-01-17T14:38:23.346Z,1.25
2019-01-17T14:39:30.277Z,1.50
2019-01-17T14:40:37.055Z,1.60
2019-01-17T14:41:45.611Z,1.20
2019-01-17T14:42:53.580Z,1.37
2019-01-17T14:44:00.366Z,1.32
2019-01-17T14:45:10.036Z,1.75
2019-01-17T14:46:17.205Z,1.35
2019-01-17T14:47:24.456Z,1.65
2019-01-17T14:48:33.654Z,1.50
2019-01-17T14:49:41.222Z,1.80
2019-01-17T14:50:51.158Z,1.40
2019-01-17T14:51:58.074Z,1.25
2019-01-17T14:53:05.590Z,1.75
2019-01-17T14:54:15.925Z,1.60
2019-01-17T14:55:23.731Z,1.25
2019-01-17T14:56:30.894Z,1.30
2019-01-17T14:57:37.996Z,1.70
2019-01-17T14:58:46.951Z,1.17
2019-01-17T14:59:54.235Z,1.47
2019-01-17T15:01:01.435Z,1.60
2019-01-17T15:02:09.821Z,1.40
2019-01-17T15:03:18.164Z,1.35
2019-01-17T15:04:25.287Z,1.50
2019-01-17T15:05:32.466Z,1.80
2019-01-17T15:06:39.240Z,1.82
2019-01-17T15:07:46.027Z,1.35
2019-01-17T15:08:52.908Z,2.10
2019-01-17T15:10:00.052Z,0.98
2019-01-17T15:11:07.189Z,1.22
2019-01-17T15:12:13.919Z,1.20
2019-01-17T15:13:20.628Z,0.90
2019-01-17T15:14:27.621Z,1.27
2019-01-17T15:15:35.043Z,1.77
2019-01-17T15:16:42.056Z,1.70
2019-01-17T15:17:49.131Z,0.80
2019-01-17T15:18:55.808Z,1.42
2019-01-17T15:20:02.738Z,1.10
2019-01-17T15:21:10.002Z,1.20
2019-01-17T15:22:16.673Z,1.80
2019-01-17T15:23:24.039Z,1.70
2019-01-17T15:24:30.765Z,1.27
2019-01-17T15:25:37.527Z,1.40
2019-01-17T15:26:44.613Z,1.70
2019-01-17T15:27:51.257Z,1.30
2019-01-17T15:28:57.958Z,1.50
2019-01-17T15:30:05.685Z,1.10
2019-01-17T15:31:13.179Z,1.47
2019-01-17T15:32:19.831Z,1.45
2019-01-17T15:33:26.562Z,1.70
2019-01-17T15:34:33.282Z,1.32
2019-01-17T15:35:40.209Z,1.50
2019-01-17T15:36:46.963Z,1.62
2019-01-17T15:37:53.911Z,1.40
2019-01-17T15:39:00.887Z,1.32
2019-01-17T15:40:12.501Z,2.00
2019-01-17T15:41:19.362Z,2.00
2019-01-17T15:42:26.603Z,1.60
2019-01-17T15:43:33.976Z,2.37
2019-01-17T15:44:40.944Z,2.52
2019-01-17T15:45:47.584Z,2.58
2019-01-17T15:46:54.224Z,2.08
2019-01-17T15:48:01.299Z,1.70
2019-01-17T15:49:07.999Z,1.67
2019-01-17T15:50:15.474Z,1.80
2019-01-17T15:51:23.610Z,2.02
2019-01-17T15:52:30.308Z,2.55
2019-01-17T15:53:37.083Z,2.27
2019-01-17T15:54:43.793Z,2.40
2019-01-17T15:55:50.434Z,2.25
2019-01-17T15:56:57.118Z,1.77
2019-01-17T15:58:04.544Z,3.17
2019-01-17T15:59:11.257Z,1.72
2019-01-17T16:01:43.973Z,2.20
2019-01-17T16:02:50.938Z,1.60
2019-01-17T16:03:58.031Z,1.70